sensor_id;sensor_type;location;lat;lon;timestamp;pressure;altitude;pressure_sealevel;temperature;humidity
7966;BME280;4028;43.272;26.932;2022-08-20T00:02:05;98676.31;;;24.75;100.00
7966;BME280;4028;43.272;26.932;2022-08-20T00:04:31;98669.94;;;24.64;100.00
7966;BME280;4028;43.272;26.932;2022-08-20T00:06:56;98687.94;;;24.75;100.00
7966;BME280;4028;43.272;26.932;2022-08-20T00:09:22;98683.69;;;24.79;100.00
7966;BME280;4028;43.272;26.932;2022-08-20T00:11:47;98687.13;;;24.75;100.00
7966;BME280;4028;43.272;26.932;2022-08-20T00:14:13;98691.25;;;24.77;100.00
7966;BME280;4028;43.272;26.932;2022-08-20T00:16:38;98688.47;;;24.72;100.00
7966;BME280;4028;43.272;26.932;2022-08-20T00:19:06;98692.72;;;24.68;100.00
7966;BME280;4028;43.272;26.932;2022-08-20T00:21:33;98688.38;;;24.67;100.00
7966;BME280;4028;43.272;26.932;2022-08-20T00:23:58;98686.72;;;24.66;100.00
7966;BME280;4028;43.272;26.932;2022-08-20T00:26:24;98685.59;;;24.62;100.00
7966;BME280;4028;43.272;26.932;2022-08-20T00:28:50;98680.41;;;24.60;100.00
7966;BME280;4028;43.272;26.932;2022-08-20T00:31:18;98684.38;;;24.53;100.00
7966;BME280;4028;43.272;26.932;2022-08-20T00:33:44;98685.34;;;24.47;100.00
7966;BME280;4028;43.272;26.932;2022-08-20T00:36:11;98691.88;;;24.51;100.00
7966;BME280;4028;43.272;26.932;2022-08-20T00:38:38;98688.22;;;24.57;100.00
7966;BME280;4028;43.272;26.932;2022-08-20T00:41:05;98683.69;;;24.46;100.00
7966;BME280;4028;43.272;26.932;2022-08-20T00:43:38;98683.59;;;24.41;100.00
7966;BME280;4028;43.272;26.932;2022-08-20T00:46:08;98656.06;;;24.27;100.00
7966;BME280;4028;43.272;26.932;2022-08-20T00:48:36;98680.22;;;24.33;100.00
7966;BME280;4028;43.272;26.932;2022-08-20T00:53:53;98658.56;;;24.17;100.00
7966;BME280;4028;43.272;26.932;2022-08-20T00:56:19;98646.19;;;24.04;100.00
7966;BME280;4028;43.272;26.932;2022-08-20T00:58:45;98680.41;;;24.15;100.00
7966;BME280;4028;43.272;26.932;2022-08-20T01:01:12;98683.94;;;24.16;100.00
7966;BME280;4028;43.272;26.932;2022-08-20T01:03:40;98673.88;;;24.11;100.00
7966;BME280;4028;43.272;26.932;2022-08-20T01:06:07;98674.09;;;24.09;100.00
7966;BME280;4028;43.272;26.932;2022-08-20T01:08:37;98673.63;;;24.12;100.00
7966;BME280;4028;43.272;26.932;2022-08-20T01:11:03;98670.59;;;24.09;100.00
7966;BME280;4028;43.272;26.932;2022-08-20T01:13:39;98677.63;;;24.10;100.00
7966;BME280;4028;43.272;26.932;2022-08-20T01:16:15;98657.31;;;24.07;100.00
7966;BME280;4028;43.272;26.932;2022-08-20T01:18:44;98663.28;;;24.09;100.00
7966;BME280;4028;43.272;26.932;2022-08-20T01:21:12;98625.81;;;23.84;100.00
7966;BME280;4028;43.272;26.932;2022-08-20T01:23:50;98657.25;;;24.02;100.00
7966;BME280;4028;43.272;26.932;2022-08-20T01:26:22;98655.34;;;24.03;100.00
7966;BME280;4028;43.272;26.932;2022-08-20T01:31:28;98652.41;;;24.04;100.00
7966;BME280;4028;43.272;26.932;2022-08-20T01:33:55;98651.31;;;24.05;100.00
7966;BME280;4028;43.272;26.932;2022-08-20T01:36:26;98652.41;;;24.04;100.00
7966;BME280;4028;43.272;26.932;2022-08-20T01:38:54;98646.44;;;24.02;100.00
7966;BME280;4028;43.272;26.932;2022-08-20T01:44:19;98587.75;;;23.57;100.00
7966;BME280;4028;43.272;26.932;2022-08-20T01:46:46;98651.50;;;23.99;100.00
7966;BME280;4028;43.272;26.932;2022-08-20T01:49:18;98652.31;;;23.99;100.00
7966;BME280;4028;43.272;26.932;2022-08-20T01:51:44;98614.41;;;23.66;100.00
7966;BME280;4028;43.272;26.932;2022-08-20T01:54:10;98650.72;;;23.86;100.00
7966;BME280;4028;43.272;26.932;2022-08-20T01:56:49;98654.25;;;23.87;100.00
7966;BME280;4028;43.272;26.932;2022-08-20T01:59:16;98650.72;;;23.86;100.00
7966;BME280;4028;43.272;26.932;2022-08-20T02:01:42;98644.50;;;23.86;100.00
7966;BME280;4028;43.272;26.932;2022-08-20T02:04:08;98648.25;;;23.85;100.00
7966;BME280;4028;43.272;26.932;2022-08-20T02:06:38;98640.66;;;23.82;100.00
7966;BME280;4028;43.272;26.932;2022-08-20T02:09:06;98643.34;;;23.82;100.00
7966;BME280;4028;43.272;26.932;2022-08-20T02:11:32;98647.34;;;23.79;100.00
7966;BME280;4028;43.272;26.932;2022-08-20T02:13:59;98645.72;;;23.78;100.00
7966;BME280;4028;43.272;26.932;2022-08-20T02:16:28;98645.97;;;23.77;100.00
7966;BME280;4028;43.272;26.932;2022-08-20T02:18:57;98646.22;;;23.75;100.00
7966;BME280;4028;43.272;26.932;2022-08-20T02:21:26;98652.09;;;23.72;100.00
7966;BME280;4028;43.272;26.932;2022-08-20T02:23:53;98647.66;;;23.66;100.00
7966;BME280;4028;43.272;26.932;2022-08-20T02:26:19;98649.53;;;23.66;100.00
7966;BME280;4028;43.272;26.932;2022-08-20T02:28:47;98636.03;;;23.66;100.00
7966;BME280;4028;43.272;26.932;2022-08-20T02:31:20;98641.03;;;23.62;100.00
7966;BME280;4028;43.272;26.932;2022-08-20T02:33:46;98642.72;;;23.63;100.00
7966;BME280;4028;43.272;26.932;2022-08-20T02:36:13;98646.91;;;23.59;100.00
7966;BME280;4028;43.272;26.932;2022-08-20T02:38:43;98642.00;;;23.56;100.00
7966;BME280;4028;43.272;26.932;2022-08-20T02:41:08;98647.41;;;23.56;100.00
7966;BME280;4028;43.272;26.932;2022-08-20T02:43:34;98635.19;;;23.53;100.00
7966;BME280;4028;43.272;26.932;2022-08-20T02:46:01;98652.47;;;23.52;100.00
7966;BME280;4028;43.272;26.932;2022-08-20T02:48:27;98627.03;;;23.37;100.00
7966;BME280;4028;43.272;26.932;2022-08-20T02:50:55;98645.78;;;23.43;100.00
7966;BME280;4028;43.272;26.932;2022-08-20T02:53:23;98651.91;;;23.39;100.00
7966;BME280;4028;43.272;26.932;2022-08-20T02:55:49;98651.91;;;23.39;100.00
7966;BME280;4028;43.272;26.932;2022-08-20T02:58:15;98653.69;;;23.33;100.00
7966;BME280;4028;43.272;26.932;2022-08-20T03:00:41;98651.22;;;23.31;100.00
7966;BME280;4028;43.272;26.932;2022-08-20T03:03:08;98640.56;;;23.25;100.00
7966;BME280;4028;43.272;26.932;2022-08-20T03:05:35;98648.69;;;23.25;100.00
7966;BME280;4028;43.272;26.932;2022-08-20T03:08:01;98652.66;;;23.22;100.00
7966;BME280;4028;43.272;26.932;2022-08-20T03:10:34;98648.56;;;23.20;100.00
7966;BME280;4028;43.272;26.932;2022-08-20T03:13:00;98650.19;;;23.21;100.00
7966;BME280;4028;43.272;26.932;2022-08-20T03:15:31;98643.38;;;23.18;100.00
7966;BME280;4028;43.272;26.932;2022-08-20T03:17:57;98638.72;;;23.14;100.00
7966;BME280;4028;43.272;26.932;2022-08-20T03:20:23;98636.25;;;23.12;100.00
7966;BME280;4028;43.272;26.932;2022-08-20T03:22:49;98640.00;;;23.11;100.00
7966;BME280;4028;43.272;26.932;2022-08-20T03:25:15;98639.19;;;23.11;100.00
7966;BME280;4028;43.272;26.932;2022-08-20T03:27:41;98638.13;;;23.12;100.00
7966;BME280;4028;43.272;26.932;2022-08-20T03:30:09;98641.63;;;23.12;100.00
7966;BME280;4028;43.272;26.932;2022-08-20T03:32:35;98646.22;;;23.12;100.00
7966;BME280;4028;43.272;26.932;2022-08-20T03:35:03;98621.34;;;22.98;100.00
7966;BME280;4028;43.272;26.932;2022-08-20T03:37:33;98641.63;;;23.12;100.00
7966;BME280;4028;43.272;26.932;2022-08-20T03:39:59;98638.94;;;23.12;100.00
7966;BME280;4028;43.272;26.932;2022-08-20T03:42:26;98637.88;;;23.13;100.00
7966;BME280;4028;43.272;26.932;2022-08-20T03:44:52;98634.16;;;23.14;100.00
7966;BME280;4028;43.272;26.932;2022-08-20T03:47:18;98634.16;;;23.14;100.00
7966;BME280;4028;43.272;26.932;2022-08-20T03:49:44;98635.78;;;23.15;100.00
7966;BME280;4028;43.272;26.932;2022-08-20T03:52:09;98641.53;;;23.19;100.00
7966;BME280;4028;43.272;26.932;2022-08-20T03:54:34;98640.56;;;23.25;100.00
7966;BME280;4028;43.272;26.932;2022-08-20T03:57:01;98645.38;;;23.34;100.00
7966;BME280;4028;43.272;26.932;2022-08-20T03:59:28;98647.94;;;23.41;100.00
7966;BME280;4028;43.272;26.932;2022-08-20T04:01:54;98652.63;;;23.46;100.00
7966;BME280;4028;43.272;26.932;2022-08-20T04:04:19;98641.81;;;23.46;100.00
7966;BME280;4028;43.272;26.932;2022-08-20T04:06:45;98653.25;;;23.65;100.00
7966;BME280;4028;43.272;26.932;2022-08-20T04:09:12;98647.59;;;23.78;100.00
7966;BME280;4028;43.272;26.932;2022-08-20T04:11:39;98645.09;;;24.05;100.00
7966;BME280;4028;43.272;26.932;2022-08-20T04:14:04;98657.47;;;24.46;100.00
7966;BME280;4028;43.272;26.932;2022-08-20T04:16:30;98643.75;;;24.86;100.00
7966;BME280;4028;43.272;26.932;2022-08-20T04:18:57;98636.28;;;25.32;100.00
7966;BME280;4028;43.272;26.932;2022-08-20T04:21:23;98644.63;;;25.97;100.00
7966;BME280;4028;43.272;26.932;2022-08-20T04:23:48;98643.41;;;26.41;100.00
7966;BME280;4028;43.272;26.932;2022-08-20T04:26:13;98586.06;;;26.28;100.00
7966;BME280;4028;43.272;26.932;2022-08-20T04:28:40;98647.31;;;26.56;100.00
7966;BME280;4028;43.272;26.932;2022-08-20T04:31:06;98627.69;;;26.11;100.00
7966;BME280;4028;43.272;26.932;2022-08-20T04:33:31;98654.66;;;25.96;100.00
7966;BME280;4028;43.272;26.932;2022-08-20T04:35:58;98661.06;;;25.68;100.00
7966;BME280;4028;43.272;26.932;2022-08-20T04:38:28;98664.81;;;25.40;100.00
7966;BME280;4028;43.272;26.932;2022-08-20T04:40:54;98629.06;;;24.99;100.00
7966;BME280;4028;43.272;26.932;2022-08-20T04:43:32;98659.81;;;24.93;100.00
7966;BME280;4028;43.272;26.932;2022-08-20T04:46:01;98658.78;;;24.77;100.00
7966;BME280;4028;43.272;26.932;2022-08-20T04:48:27;98646.72;;;24.51;100.00
7966;BME280;4028;43.272;26.932;2022-08-20T04:50:55;98653.94;;;24.46;100.00
7966;BME280;4028;43.272;26.932;2022-08-20T04:53:23;98653.28;;;24.38;100.00
7966;BME280;4028;43.272;26.932;2022-08-20T04:55:50;98651.47;;;24.27;100.00
7966;BME280;4028;43.272;26.932;2022-08-20T04:58:21;98655.72;;;24.23;100.00
7966;BME280;4028;43.272;26.932;2022-08-20T05:00:47;98650.22;;;24.18;100.00
7966;BME280;4028;43.272;26.932;2022-08-20T05:03:14;98654.13;;;24.10;100.00
7966;BME280;4028;43.272;26.932;2022-08-20T05:05:40;98657.88;;;24.09;100.00
7966;BME280;4028;43.272;26.932;2022-08-20T05:08:06;98652.00;;;24.12;100.00
7966;BME280;4028;43.272;26.932;2022-08-20T05:10:32;98656.09;;;24.15;100.00
7966;BME280;4028;43.272;26.932;2022-08-20T05:12:58;98636.78;;;24.06;100.00
7966;BME280;4028;43.272;26.932;2022-08-20T05:15:24;98664.97;;;24.27;100.00
7966;BME280;4028;43.272;26.932;2022-08-20T05:17:54;98658.16;;;24.25;100.00
7966;BME280;4028;43.272;26.932;2022-08-20T05:20:20;98668.53;;;24.45;100.00
7966;BME280;4028;43.272;26.932;2022-08-20T05:22:46;98672.78;;;24.41;100.00
7966;BME280;4028;43.272;26.932;2022-08-20T05:25:12;98673.13;;;24.44;100.00
7966;BME280;4028;43.272;26.932;2022-08-20T05:27:37;98661.91;;;24.52;100.00
7966;BME280;4028;43.272;26.932;2022-08-20T05:30:08;98652.22;;;24.56;100.00
7966;BME280;4028;43.272;26.932;2022-08-20T05:32:35;98671.47;;;24.60;100.00
7966;BME280;4028;43.272;26.932;2022-08-20T05:35:02;98688.06;;;24.63;100.00
7966;BME280;4028;43.272;26.932;2022-08-20T05:37:28;98686.25;;;24.52;100.00
7966;BME280;4028;43.272;26.932;2022-08-20T05:39:54;98676.91;;;24.43;100.00
7966;BME280;4028;43.272;26.932;2022-08-20T05:42:20;98683.84;;;24.56;100.00
7966;BME280;4028;43.272;26.932;2022-08-20T05:44:45;98685.97;;;24.71;100.00
7966;BME280;4028;43.272;26.932;2022-08-20T05:47:12;98682.94;;;25.01;100.00
7966;BME280;4028;43.272;26.932;2022-08-20T05:49:38;98681.81;;;25.35;100.00
7966;BME280;4028;43.272;26.932;2022-08-20T05:52:04;98679.63;;;25.76;100.00
7966;BME280;4028;43.272;26.932;2022-08-20T05:54:30;98687.16;;;26.23;100.00
7966;BME280;4028;43.272;26.932;2022-08-20T05:56:56;98647.44;;;26.39;100.00
7966;BME280;4028;43.272;26.932;2022-08-20T05:59:22;98686.59;;;27.23;100.00
7966;BME280;4028;43.272;26.932;2022-08-20T06:01:48;98686.09;;;27.83;100.00
7966;BME280;4028;43.272;26.932;2022-08-20T06:04:14;98659.78;;;28.24;100.00
7966;BME280;4028;43.272;26.932;2022-08-20T06:06:56;98683.78;;;28.94;97.54
7966;BME280;4028;43.272;26.932;2022-08-20T06:09:23;98682.34;;;29.27;88.83
7966;BME280;4028;43.272;26.932;2022-08-20T06:11:49;98667.19;;;29.75;85.09
7966;BME280;4028;43.272;26.932;2022-08-20T06:14:14;98678.31;;;30.34;80.67
7966;BME280;4028;43.272;26.932;2022-08-20T06:16:41;98674.50;;;30.64;72.20
7966;BME280;4028;43.272;26.932;2022-08-20T06:19:07;98672.50;;;30.40;71.45
7966;BME280;4028;43.272;26.932;2022-08-20T06:21:32;98674.22;;;30.99;68.22
7966;BME280;4028;43.272;26.932;2022-08-20T06:23:58;98676.56;;;31.59;65.01
7966;BME280;4028;43.272;26.932;2022-08-20T06:26:23;98678.94;;;31.66;61.48
7966;BME280;4028;43.272;26.932;2022-08-20T06:28:49;98652.22;;;31.81;58.71
7966;BME280;4028;43.272;26.932;2022-08-20T06:31:14;98683.13;;;32.57;56.84
7966;BME280;4028;43.272;26.932;2022-08-20T06:33:40;98681.63;;;33.11;55.56
7966;BME280;4028;43.272;26.932;2022-08-20T06:36:07;98683.69;;;33.47;53.25
7966;BME280;4028;43.272;26.932;2022-08-20T06:38:32;98680.84;;;33.80;52.67
7966;BME280;4028;43.272;26.932;2022-08-20T06:40:58;98683.22;;;34.09;48.45
7966;BME280;4028;43.272;26.932;2022-08-20T06:43:23;98679.84;;;34.26;47.46
7966;BME280;4028;43.272;26.932;2022-08-20T06:45:50;98685.31;;;34.26;46.76
7966;BME280;4028;43.272;26.932;2022-08-20T06:48:16;98678.72;;;34.72;45.51
7966;BME280;4028;43.272;26.932;2022-08-20T06:50:45;98682.63;;;34.79;44.58
7966;BME280;4028;43.272;26.932;2022-08-20T06:53:15;98684.00;;;35.13;44.10
7966;BME280;4028;43.272;26.932;2022-08-20T06:55:44;98679.78;;;35.15;41.69
7966;BME280;4028;43.272;26.932;2022-08-20T06:58:11;98689.72;;;35.34;41.46
7966;BME280;4028;43.272;26.932;2022-08-20T07:00:39;98683.56;;;35.37;41.41
7966;BME280;4028;43.272;26.932;2022-08-20T07:03:07;98682.88;;;35.62;42.75
7966;BME280;4028;43.272;26.932;2022-08-20T07:05:35;98681.31;;;35.87;40.88
7966;BME280;4028;43.272;26.932;2022-08-20T07:08:02;98690.59;;;34.81;42.46
7966;BME280;4028;43.272;26.932;2022-08-20T07:10:28;98666.50;;;35.09;42.97
7966;BME280;4028;43.272;26.932;2022-08-20T07:12:54;98680.03;;;35.85;42.37
7966;BME280;4028;43.272;26.932;2022-08-20T07:15:21;98681.88;;;36.24;39.30
7966;BME280;4028;43.272;26.932;2022-08-20T07:17:53;98680.41;;;36.27;39.09
7966;BME280;4028;43.272;26.932;2022-08-20T07:20:19;98680.75;;;36.51;38.55
7966;BME280;4028;43.272;26.932;2022-08-20T07:22:45;98674.38;;;36.59;38.91
7966;BME280;4028;43.272;26.932;2022-08-20T07:25:14;98679.25;;;36.62;38.48
7966;BME280;4028;43.272;26.932;2022-08-20T07:27:40;98663.19;;;36.64;38.31
7966;BME280;4028;43.272;26.932;2022-08-20T07:30:09;98663.31;;;36.94;37.26
7966;BME280;4028;43.272;26.932;2022-08-20T07:32:54;98670.44;;;36.95;38.79
7966;BME280;4028;43.272;26.932;2022-08-20T07:35:19;98668.03;;;37.32;37.81
7966;BME280;4028;43.272;26.932;2022-08-20T07:37:47;98670.94;;;36.97;36.41
7966;BME280;4028;43.272;26.932;2022-08-20T07:40:26;98665.31;;;36.67;38.22
7966;BME280;4028;43.272;26.932;2022-08-20T07:42:56;98670.81;;;36.67;38.56
7966;BME280;4028;43.272;26.932;2022-08-20T07:45:23;98665.34;;;37.14;38.22
7966;BME280;4028;43.272;26.932;2022-08-20T07:47:50;98676.72;;;37.51;36.57
7966;BME280;4028;43.272;26.932;2022-08-20T07:50:21;98662.34;;;36.90;37.43
7966;BME280;4028;43.272;26.932;2022-08-20T07:52:47;98655.03;;;36.94;37.90
7966;BME280;4028;43.272;26.932;2022-08-20T07:55:14;98662.13;;;37.12;36.79
7966;BME280;4028;43.272;26.932;2022-08-20T07:57:41;98660.25;;;37.25;37.26
7966;BME280;4028;43.272;26.932;2022-08-20T08:00:11;98639.69;;;37.22;36.89
7966;BME280;4028;43.272;26.932;2022-08-20T08:02:37;98654.19;;;37.70;36.08
7966;BME280;4028;43.272;26.932;2022-08-20T08:05:04;98654.56;;;38.10;36.09
7966;BME280;4028;43.272;26.932;2022-08-20T08:07:31;98645.09;;;37.69;35.79
7966;BME280;4028;43.272;26.932;2022-08-20T08:09:59;98641.38;;;37.95;35.86
7966;BME280;4028;43.272;26.932;2022-08-20T08:12:32;98640.09;;;38.34;34.61
7966;BME280;4028;43.272;26.932;2022-08-20T08:14:59;98653.28;;;38.29;34.68
7966;BME280;4028;43.272;26.932;2022-08-20T08:17:27;98634.53;;;38.55;34.85
7966;BME280;4028;43.272;26.932;2022-08-20T08:19:52;98630.81;;;38.51;34.14
7966;BME280;4028;43.272;26.932;2022-08-20T08:22:18;98628.16;;;38.76;34.50
7966;BME280;4028;43.272;26.932;2022-08-20T08:24:45;98626.28;;;38.80;34.05
7966;BME280;4028;43.272;26.932;2022-08-20T08:27:12;98621.28;;;39.18;35.13
7966;BME280;4028;43.272;26.932;2022-08-20T08:29:38;98625.28;;;38.84;33.36
7966;BME280;4028;43.272;26.932;2022-08-20T08:32:04;98630.13;;;38.54;33.17
7966;BME280;4028;43.272;26.932;2022-08-20T08:34:33;98629.28;;;38.41;34.89
7966;BME280;4028;43.272;26.932;2022-08-20T08:36:59;98604.72;;;38.73;33.29
7966;BME280;4028;43.272;26.932;2022-08-20T08:39:26;98616.69;;;39.22;32.53
7966;BME280;4028;43.272;26.932;2022-08-20T08:41:52;98620.44;;;38.48;32.51
7966;BME280;4028;43.272;26.932;2022-08-20T08:44:26;98613.88;;;38.53;32.77
7966;BME280;4028;43.272;26.932;2022-08-20T08:46:59;98612.59;;;38.83;33.47
7966;BME280;4028;43.272;26.932;2022-08-20T08:49:30;98609.75;;;39.29;31.99
7966;BME280;4028;43.272;26.932;2022-08-20T08:52:01;98618.16;;;38.95;32.38
7966;BME280;4028;43.272;26.932;2022-08-20T08:54:30;98613.19;;;39.13;31.79
7966;BME280;4028;43.272;26.932;2022-08-20T08:56:57;98592.91;;;39.58;32.11
7966;BME280;4028;43.272;26.932;2022-08-20T08:59:28;98612.28;;;40.11;31.71
7966;BME280;4028;43.272;26.932;2022-08-20T09:01:57;98605.25;;;40.13;31.44
7966;BME280;4028;43.272;26.932;2022-08-20T09:04:42;98603.59;;;39.60;31.37
7966;BME280;4028;43.272;26.932;2022-08-20T09:07:11;98606.00;;;39.86;32.09
7966;BME280;4028;43.272;26.932;2022-08-20T09:09:40;98607.50;;;40.23;30.73
7966;BME280;4028;43.272;26.932;2022-08-20T09:12:12;98599.28;;;40.27;30.16
7966;BME280;4028;43.272;26.932;2022-08-20T09:14:37;98590.00;;;40.07;29.61
7966;BME280;4028;43.272;26.932;2022-08-20T09:17:04;98570.63;;;39.67;30.30
7966;BME280;4028;43.272;26.932;2022-08-20T09:19:29;98592.38;;;39.81;29.58
7966;BME280;4028;43.272;26.932;2022-08-20T09:21:55;98600.31;;;39.42;29.27
7966;BME280;4028;43.272;26.932;2022-08-20T09:24:22;98570.09;;;39.24;29.63
7966;BME280;4028;43.272;26.932;2022-08-20T09:26:47;98590.63;;;39.11;30.14
7966;BME280;4028;43.272;26.932;2022-08-20T09:29:13;98587.94;;;38.78;30.61
7966;BME280;4028;43.272;26.932;2022-08-20T09:31:39;98585.66;;;38.80;30.33
7966;BME280;4028;43.272;26.932;2022-08-20T09:34:04;98583.56;;;39.14;30.88
7966;BME280;4028;43.272;26.932;2022-08-20T09:36:30;98565.38;;;39.00;29.85
7966;BME280;4028;43.272;26.932;2022-08-20T09:38:55;98572.50;;;39.38;30.33
7966;BME280;4028;43.272;26.932;2022-08-20T09:41:21;98566.66;;;39.80;30.11
7966;BME280;4028;43.272;26.932;2022-08-20T09:43:46;98578.78;;;39.75;29.07
7966;BME280;4028;43.272;26.932;2022-08-20T09:46:12;98565.00;;;39.14;29.19
7966;BME280;4028;43.272;26.932;2022-08-20T09:48:37;98570.34;;;39.32;29.49
7966;BME280;4028;43.272;26.932;2022-08-20T09:51:03;98564.09;;;39.10;29.77
7966;BME280;4028;43.272;26.932;2022-08-20T09:53:29;98565.72;;;38.87;30.66
7966;BME280;4028;43.272;26.932;2022-08-20T09:55:55;98556.38;;;39.16;29.66
7966;BME280;4028;43.272;26.932;2022-08-20T09:58:57;98565.84;;;39.27;30.69
7966;BME280;4028;43.272;26.932;2022-08-20T10:01:18;98564.28;;;38.68;30.77
7966;BME280;4028;43.272;26.932;2022-08-20T10:03:44;98569.69;;;38.19;31.36
7966;BME280;4028;43.272;26.932;2022-08-20T10:06:13;98556.41;;;38.91;30.82
7966;BME280;4028;43.272;26.932;2022-08-20T10:08:39;98560.97;;;39.36;31.23
7966;BME280;4028;43.272;26.932;2022-08-20T10:11:05;98560.72;;;39.66;29.44
7966;BME280;4028;43.272;26.932;2022-08-20T10:13:30;98559.63;;;39.83;29.61
7966;BME280;4028;43.272;26.932;2022-08-20T10:15:56;98552.34;;;40.18;28.67
7966;BME280;4028;43.272;26.932;2022-08-20T10:18:21;98558.28;;;38.21;30.09
7966;BME280;4028;43.272;26.932;2022-08-20T10:20:47;98547.41;;;38.82;30.14
7966;BME280;4028;43.272;26.932;2022-08-20T10:23:13;98535.44;;;39.55;30.43
7966;BME280;4028;43.272;26.932;2022-08-20T10:25:38;98538.56;;;40.22;28.29
7966;BME280;4028;43.272;26.932;2022-08-20T10:28:04;98538.78;;;40.45;27.62
7966;BME280;4028;43.272;26.932;2022-08-20T10:30:31;98536.69;;;40.26;27.66
7966;BME280;4028;43.272;26.932;2022-08-20T10:32:56;98544.16;;;39.82;28.25
7966;BME280;4028;43.272;26.932;2022-08-20T10:35:22;98539.56;;;39.61;27.43
7966;BME280;4028;43.272;26.932;2022-08-20T10:37:47;98537.13;;;39.84;27.95
7966;BME280;4028;43.272;26.932;2022-08-20T10:40:13;98537.25;;;39.75;27.25
7966;BME280;4028;43.272;26.932;2022-08-20T10:42:42;98531.47;;;39.81;27.79
7966;BME280;4028;43.272;26.932;2022-08-20T10:45:09;98531.38;;;40.05;27.65
7966;BME280;4028;43.272;26.932;2022-08-20T10:47:35;98501.91;;;40.13;27.56
7966;BME280;4028;43.272;26.932;2022-08-20T10:50:03;98526.34;;;39.95;27.10
7966;BME280;4028;43.272;26.932;2022-08-20T10:52:29;98522.94;;;40.14;26.97
7966;BME280;4028;43.272;26.932;2022-08-20T10:54:55;98524.06;;;40.13;27.21
7966;BME280;4028;43.272;26.932;2022-08-20T10:57:25;98520.41;;;40.09;26.69
7966;BME280;4028;43.272;26.932;2022-08-20T10:59:52;98520.50;;;40.12;26.69
7966;BME280;4028;43.272;26.932;2022-08-20T11:02:19;98511.84;;;40.14;27.36
7966;BME280;4028;43.272;26.932;2022-08-20T11:04:46;98508.28;;;40.29;27.32
7966;BME280;4028;43.272;26.932;2022-08-20T11:09:37;98499.88;;;40.41;26.75
7966;BME280;4028;43.272;26.932;2022-08-20T11:12:03;98487.47;;;40.19;27.35
7966;BME280;4028;43.272;26.932;2022-08-20T11:14:28;98492.75;;;40.40;27.25
7966;BME280;4028;43.272;26.932;2022-08-20T11:16:54;98491.31;;;40.46;26.30
7966;BME280;4028;43.272;26.932;2022-08-20T11:19:19;98497.22;;;40.45;26.24
7966;BME280;4028;43.272;26.932;2022-08-20T11:21:45;98489.53;;;38.40;28.08
7966;BME280;4028;43.272;26.932;2022-08-20T11:24:10;98488.09;;;37.26;30.00
7966;BME280;4028;43.272;26.932;2022-08-20T11:26:36;98483.25;;;37.02;31.21
7966;BME280;4028;43.272;26.932;2022-08-20T11:29:01;98486.00;;;37.02;31.25
7966;BME280;4028;43.272;26.932;2022-08-20T11:31:27;98473.25;;;36.89;31.00
7966;BME280;4028;43.272;26.932;2022-08-20T11:33:52;98482.72;;;37.71;29.73
7966;BME280;4028;43.272;26.932;2022-08-20T11:36:18;98487.31;;;37.88;28.56
7966;BME280;4028;43.272;26.932;2022-08-20T11:38:43;98483.63;;;37.84;28.50
7966;BME280;4028;43.272;26.932;2022-08-20T11:41:09;98487.22;;;37.97;28.21
7966;BME280;4028;43.272;26.932;2022-08-20T11:43:34;98475.63;;;38.04;28.58
7966;BME280;4028;43.272;26.932;2022-08-20T11:45:59;98486.47;;;38.21;29.42
7966;BME280;4028;43.272;26.932;2022-08-20T11:48:25;98482.03;;;38.41;29.17
7966;BME280;4028;43.272;26.932;2022-08-20T11:50:50;98481.00;;;38.58;29.03
7966;BME280;4028;43.272;26.932;2022-08-20T11:53:16;98476.56;;;38.78;28.74
7966;BME280;4028;43.272;26.932;2022-08-20T11:55:42;98470.09;;;38.86;28.47
7966;BME280;4028;43.272;26.932;2022-08-20T11:58:08;98472.50;;;38.87;28.44
7966;BME280;4028;43.272;26.932;2022-08-20T12:00:34;98467.09;;;38.79;28.29
7966;BME280;4028;43.272;26.932;2022-08-20T12:03:01;98458.88;;;38.33;28.13
7966;BME280;4028;43.272;26.932;2022-08-20T12:05:29;98457.03;;;38.25;28.06
7966;BME280;4028;43.272;26.932;2022-08-20T12:07:54;98452.75;;;38.15;29.40
7966;BME280;4028;43.272;26.932;2022-08-20T12:10:20;98436.19;;;38.15;28.20
7966;BME280;4028;43.272;26.932;2022-08-20T12:12:47;98448.34;;;38.02;28.43
7966;BME280;4028;43.272;26.932;2022-08-20T12:15:12;98447.38;;;37.53;28.72
7966;BME280;4028;43.272;26.932;2022-08-20T12:17:38;98440.22;;;37.52;28.82
7966;BME280;4028;43.272;26.932;2022-08-20T12:20:07;98441.03;;;37.52;29.60
7966;BME280;4028;43.272;26.932;2022-08-20T12:22:33;98434.19;;;37.16;29.46
7966;BME280;4028;43.272;26.932;2022-08-20T12:24:59;98431.47;;;36.78;30.81
7966;BME280;4028;43.272;26.932;2022-08-20T12:27:27;98439.59;;;36.75;30.89
7966;BME280;4028;43.272;26.932;2022-08-20T12:29:54;98437.00;;;37.08;30.25
7966;BME280;4028;43.272;26.932;2022-08-20T12:32:22;98417.84;;;37.11;28.98
7966;BME280;4028;43.272;26.932;2022-08-20T12:34:48;98423.16;;;37.16;29.23
7966;BME280;4028;43.272;26.932;2022-08-20T12:37:15;98417.69;;;37.29;30.08
7966;BME280;4028;43.272;26.932;2022-08-20T12:39:44;98388.31;;;36.91;30.35
7966;BME280;4028;43.272;26.932;2022-08-20T12:42:10;98416.28;;;37.22;29.74
7966;BME280;4028;43.272;26.932;2022-08-20T12:44:37;98410.28;;;37.20;29.32
7966;BME280;4028;43.272;26.932;2022-08-20T12:47:09;98412.31;;;37.32;29.42
7966;BME280;4028;43.272;26.932;2022-08-20T12:49:36;98404.97;;;37.36;30.13
7966;BME280;4028;43.272;26.932;2022-08-20T12:52:02;98410.63;;;37.40;28.43
7966;BME280;4028;43.272;26.932;2022-08-20T12:54:27;98415.28;;;37.48;28.93
7966;BME280;4028;43.272;26.932;2022-08-20T12:56:53;98419.44;;;37.33;27.75
7966;BME280;4028;43.272;26.932;2022-08-20T12:59:21;98414.09;;;36.86;28.00
7966;BME280;4028;43.272;26.932;2022-08-20T13:01:47;98403.91;;;36.57;28.58
7966;BME280;4028;43.272;26.932;2022-08-20T13:04:12;98407.88;;;36.68;29.44
7966;BME280;4028;43.272;26.932;2022-08-20T13:06:38;98405.66;;;36.91;29.81
7966;BME280;4028;43.272;26.932;2022-08-20T13:09:03;98411.44;;;36.99;30.34
7966;BME280;4028;43.272;26.932;2022-08-20T13:11:29;98402.63;;;37.05;29.02
7966;BME280;4028;43.272;26.932;2022-08-20T13:13:54;98401.41;;;37.15;28.81
7966;BME280;4028;43.272;26.932;2022-08-20T13:16:20;98388.56;;;37.19;28.09